sensor_id;sensor_type;location;lat;lon;timestamp;pressure;altitude;pressure_sealevel;temperature;humidity
35908;BME280;22003;50.320;8.054;2022-12-18T00:07:18;101009.06;;;-8.97;100.00
35908;BME280;22003;50.320;8.054;2022-12-18T00:09:44;100952.25;;;-9.13;100.00
35908;BME280;22003;50.320;8.054;2022-12-18T00:12:10;100986.00;;;-8.94;100.00
35908;BME280;22003;50.320;8.054;2022-12-18T00:14:35;101032.09;;;-8.60;100.00
35908;BME280;22003;50.320;8.054;2022-12-18T00:17:01;101008.06;;;-8.62;100.00
35908;BME280;22003;50.320;8.054;2022-12-18T00:19:29;100973.56;;;-8.76;100.00
35908;BME280;22003;50.320;8.054;2022-12-18T00:21:55;101064.03;;;-8.02;100.00
35908;BME280;22003;50.320;8.054;2022-12-18T00:24:20;100994.53;;;-8.53;100.00
35908;BME280;22003;50.320;8.054;2022-12-18T00:26:46;100940.31;;;-8.67;100.00
35908;BME280;22003;50.320;8.054;2022-12-18T00:29:13;101044.97;;;-8.13;100.00
35908;BME280;22003;50.320;8.054;2022-12-18T00:31:42;100977.31;;;-8.59;100.00
35908;BME280;22003;50.320;8.054;2022-12-18T00:34:10;100990.31;;;-8.93;100.00
35908;BME280;22003;50.320;8.054;2022-12-18T00:36:37;100951.50;;;-9.09;100.00
35908;BME280;22003;50.320;8.054;2022-12-18T00:39:04;100943.34;;;-9.28;100.00
35908;BME280;22003;50.320;8.054;2022-12-18T00:41:29;101041.53;;;-8.99;100.00
35908;BME280;22003;50.320;8.054;2022-12-18T00:44:14;100987.16;;;-9.21;100.00
35908;BME280;22003;50.320;8.054;2022-12-18T00:46:41;100990.13;;;-9.42;100.00
35908;BME280;22003;50.320;8.054;2022-12-18T00:49:06;101054.19;;;-9.09;100.00
35908;BME280;22003;50.320;8.054;2022-12-18T00:51:31;101023.84;;;-9.25;100.00
35908;BME280;22003;50.320;8.054;2022-12-18T00:53:57;101059.41;;;-8.65;100.00
35908;BME280;22003;50.320;8.054;2022-12-18T00:56:23;101017.13;;;-9.20;100.00
35908;BME280;22003;50.320;8.054;2022-12-18T00:58:48;101014.94;;;-9.03;100.00
35908;BME280;22003;50.320;8.054;2022-12-18T01:01:14;100969.34;;;-9.13;100.00
35908;BME280;22003;50.320;8.054;2022-12-18T01:03:39;101062.00;;;-8.63;100.00
35908;BME280;22003;50.320;8.054;2022-12-18T01:06:06;101078.81;;;-8.37;100.00
35908;BME280;22003;50.320;8.054;2022-12-18T01:08:32;101028.47;;;-8.71;100.00
35908;BME280;22003;50.320;8.054;2022-12-18T01:10:57;101030.22;;;-9.09;100.00
35908;BME280;22003;50.320;8.054;2022-12-18T01:13:22;101025.78;;;-8.75;100.00
35908;BME280;22003;50.320;8.054;2022-12-18T01:15:51;101078.69;;;-8.84;100.00
35908;BME280;22003;50.320;8.054;2022-12-18T01:18:16;101082.81;;;-8.90;100.00
35908;BME280;22003;50.320;8.054;2022-12-18T01:20:42;100947.03;;;-9.55;100.00
35908;BME280;22003;50.320;8.054;2022-12-18T01:23:07;100978.97;;;-9.05;100.00
35908;BME280;22003;50.320;8.054;2022-12-18T01:25:33;101022.81;;;-8.94;100.00
35908;BME280;22003;50.320;8.054;2022-12-18T01:28:00;101045.63;;;-8.68;100.00
35908;BME280;22003;50.320;8.054;2022-12-18T01:30:26;100980.25;;;-9.23;100.00
35908;BME280;22003;50.320;8.054;2022-12-18T01:32:52;101032.28;;;-8.91;100.00
35908;BME280;22003;50.320;8.054;2022-12-18T01:35:17;100983.31;;;-9.00;100.00
35908;BME280;22003;50.320;8.054;2022-12-18T01:37:42;101081.03;;;-8.10;100.00
35908;BME280;22003;50.320;8.054;2022-12-18T01:40:08;100973.25;;;-8.90;100.00
35908;BME280;22003;50.320;8.054;2022-12-18T01:42:33;101020.22;;;-8.55;100.00
35908;BME280;22003;50.320;8.054;2022-12-18T01:47:39;100967.03;;;-9.01;100.00
35908;BME280;22003;50.320;8.054;2022-12-18T01:50:25;101074.97;;;-8.57;100.00
35908;BME280;22003;50.320;8.054;2022-12-18T01:52:57;101076.56;;;-8.18;100.00
35908;BME280;22003;50.320;8.054;2022-12-18T01:55:25;101081.50;;;-8.29;100.00
35908;BME280;22003;50.320;8.054;2022-12-18T01:57:53;101107.00;;;-7.94;100.00
35908;BME280;22003;50.320;8.054;2022-12-18T02:00:21;101085.28;;;-8.56;100.00
35908;BME280;22003;50.320;8.054;2022-12-18T02:02:47;101083.75;;;-8.47;100.00
35908;BME280;22003;50.320;8.054;2022-12-18T02:05:16;100831.84;;;-9.85;100.00
35908;BME280;22003;50.320;8.054;2022-12-18T02:08:00;101030.19;;;-8.70;100.00
35908;BME280;22003;50.320;8.054;2022-12-18T02:10:40;101076.94;;;-8.44;100.00
35908;BME280;22003;50.320;8.054;2022-12-18T02:16:03;101059.81;;;-7.98;100.00
35908;BME280;22003;50.320;8.054;2022-12-18T02:18:36;101007.44;;;-8.50;100.00
35908;BME280;22003;50.320;8.054;2022-12-18T02:21:21;101008.38;;;-8.46;100.00
35908;BME280;22003;50.320;8.054;2022-12-18T02:24:12;101060.50;;;-8.54;100.00
35908;BME280;22003;50.320;8.054;2022-12-18T02:26:45;101059.06;;;-8.80;100.00
35908;BME280;22003;50.320;8.054;2022-12-18T02:29:33;101051.81;;;-8.59;100.00
35908;BME280;22003;50.320;8.054;2022-12-18T02:32:02;100993.28;;;-9.16;100.00
35908;BME280;22003;50.320;8.054;2022-12-18T02:34:31;101015.09;;;-8.94;100.00
35908;BME280;22003;50.320;8.054;2022-12-18T02:37:00;100909.53;;;-9.50;100.00
35908;BME280;22003;50.320;8.054;2022-12-18T02:39:29;101018.03;;;-9.18;100.00
35908;BME280;22003;50.320;8.054;2022-12-18T02:41:56;101094.41;;;-9.08;100.00
35908;BME280;22003;50.320;8.054;2022-12-18T02:44:22;100996.47;;;-8.85;100.00
35908;BME280;22003;50.320;8.054;2022-12-18T02:46:52;100994.69;;;-9.28;100.00
35908;BME280;22003;50.320;8.054;2022-12-18T02:49:38;101069.84;;;-8.56;100.00
35908;BME280;22003;50.320;8.054;2022-12-18T02:52:27;101050.44;;;-8.43;100.00
35908;BME280;22003;50.320;8.054;2022-12-18T02:55:16;101000.66;;;-8.89;100.00
35908;BME280;22003;50.320;8.054;2022-12-18T02:57:48;101062.44;;;-8.42;100.00
35908;BME280;22003;50.320;8.054;2022-12-18T03:00:24;101024.31;;;-8.63;100.00
35908;BME280;22003;50.320;8.054;2022-12-18T03:05:34;101037.16;;;-8.64;100.00
35908;BME280;22003;50.320;8.054;2022-12-18T03:08:06;101026.34;;;-8.89;100.00
35908;BME280;22003;50.320;8.054;2022-12-18T03:10:36;101026.94;;;-9.02;100.00
35908;BME280;22003;50.320;8.054;2022-12-18T03:13:06;100996.41;;;-8.88;100.00
35908;BME280;22003;50.320;8.054;2022-12-18T03:15:45;101049.03;;;-8.69;100.00
35908;BME280;22003;50.320;8.054;2022-12-18T03:18:24;101034.72;;;-8.57;100.00
35908;BME280;22003;50.320;8.054;2022-12-18T03:20:52;101011.69;;;-8.94;100.00
35908;BME280;22003;50.320;8.054;2022-12-18T03:23:23;101001.72;;;-9.21;100.00
35908;BME280;22003;50.320;8.054;2022-12-18T03:25:51;101002.38;;;-9.28;100.00
35908;BME280;22003;50.320;8.054;2022-12-18T03:28:21;101032.59;;;-9.17;100.00
35908;BME280;22003;50.320;8.054;2022-12-18T03:30:51;101058.13;;;-8.84;100.00
35908;BME280;22003;50.320;8.054;2022-12-18T03:33:27;100967.88;;;-9.43;100.00
35908;BME280;22003;50.320;8.054;2022-12-18T03:35:54;101007.84;;;-9.15;100.00
35908;BME280;22003;50.320;8.054;2022-12-18T03:38:20;101038.47;;;-9.59;100.00
35908;BME280;22003;50.320;8.054;2022-12-18T03:40:55;100973.66;;;-9.88;100.00
35908;BME280;22003;50.320;8.054;2022-12-18T03:43:37;101024.38;;;-9.40;100.00
35908;BME280;22003;50.320;8.054;2022-12-18T03:46:09;101004.47;;;-9.86;100.00
35908;BME280;22003;50.320;8.054;2022-12-18T03:48:43;101019.69;;;-9.92;100.00
35908;BME280;22003;50.320;8.054;2022-12-18T03:51:18;100998.97;;;-10.00;100.00
35908;BME280;22003;50.320;8.054;2022-12-18T03:53:53;100939.44;;;-10.26;100.00
35908;BME280;22003;50.320;8.054;2022-12-18T03:56:22;101017.13;;;-9.92;100.00
35908;BME280;22003;50.320;8.054;2022-12-18T03:58:52;100965.00;;;-9.93;100.00
35908;BME280;22003;50.320;8.054;2022-12-18T04:01:20;100862.50;;;-10.95;100.00
35908;BME280;22003;50.320;8.054;2022-12-18T04:03:49;101040.78;;;-10.02;100.00
35908;BME280;22003;50.320;8.054;2022-12-18T04:06:15;100870.88;;;-10.69;100.00
35908;BME280;22003;50.320;8.054;2022-12-18T04:08:42;100914.69;;;-10.24;100.00
35908;BME280;22003;50.320;8.054;2022-12-18T04:11:07;101015.28;;;-9.63;100.00
35908;BME280;22003;50.320;8.054;2022-12-18T04:13:35;100985.34;;;-9.99;98.99
35908;BME280;22003;50.320;8.054;2022-12-18T04:16:01;100988.72;;;-10.34;99.88
35908;BME280;22003;50.320;8.054;2022-12-18T04:18:26;101015.34;;;-9.95;100.00
35908;BME280;22003;50.320;8.054;2022-12-18T04:20:51;100895.50;;;-10.74;98.86
35908;BME280;22003;50.320;8.054;2022-12-18T04:23:17;100950.31;;;-10.66;99.29
35908;BME280;22003;50.320;8.054;2022-12-18T04:25:42;100938.13;;;-10.76;99.16
35908;BME280;22003;50.320;8.054;2022-12-18T04:28:07;100975.41;;;-10.84;99.91
35908;BME280;22003;50.320;8.054;2022-12-18T04:30:33;100945.78;;;-11.06;100.00
35908;BME280;22003;50.320;8.054;2022-12-18T04:32:58;100946.84;;;-11.00;100.00
35908;BME280;22003;50.320;8.054;2022-12-18T04:35:23;100973.72;;;-10.84;100.00
35908;BME280;22003;50.320;8.054;2022-12-18T04:37:48;100959.25;;;-11.13;100.00
35908;BME280;22003;50.320;8.054;2022-12-18T04:40:14;100972.69;;;-11.21;100.00
35908;BME280;22003;50.320;8.054;2022-12-18T04:42:40;100981.78;;;-11.00;100.00
35908;BME280;22003;50.320;8.054;2022-12-18T04:45:06;101021.19;;;-10.95;100.00
35908;BME280;22003;50.320;8.054;2022-12-18T04:47:31;100895.81;;;-11.84;100.00
35908;BME280;22003;50.320;8.054;2022-12-18T04:49:57;100980.25;;;-11.52;100.00
35908;BME280;22003;50.320;8.054;2022-12-18T04:52:22;100775.78;;;-12.92;100.00
35908;BME280;22003;50.320;8.054;2022-12-18T04:54:47;101010.63;;;-11.34;100.00
35908;BME280;22003;50.320;8.054;2022-12-18T04:57:13;100940.19;;;-11.80;100.00
35908;BME280;22003;50.320;8.054;2022-12-18T04:59:38;101033.09;;;-10.97;100.00
35908;BME280;22003;50.320;8.054;2022-12-18T05:02:03;100950.25;;;-11.58;100.00
35908;BME280;22003;50.320;8.054;2022-12-18T05:04:28;100971.56;;;-11.57;100.00
35908;BME280;22003;50.320;8.054;2022-12-18T05:06:54;101001.84;;;-11.15;100.00
35908;BME280;22003;50.320;8.054;2022-12-18T05:09:19;100899.19;;;-11.85;100.00
35908;BME280;22003;50.320;8.054;2022-12-18T05:11:44;100920.63;;;-11.80;100.00
35908;BME280;22003;50.320;8.054;2022-12-18T05:14:10;101039.91;;;-10.98;100.00
35908;BME280;22003;50.320;8.054;2022-12-18T05:16:35;100953.53;;;-11.62;100.00
35908;BME280;22003;50.320;8.054;2022-12-18T05:19:01;100925.09;;;-11.73;100.00
35908;BME280;22003;50.320;8.054;2022-12-18T05:21:26;101034.78;;;-11.53;99.52
35908;BME280;22003;50.320;8.054;2022-12-18T05:23:51;101002.09;;;-11.62;99.44
35908;BME280;22003;50.320;8.054;2022-12-18T05:26:18;100961.50;;;-11.81;99.70
35908;BME280;22003;50.320;8.054;2022-12-18T05:28:43;101018.41;;;-11.31;99.66
35908;BME280;22003;50.320;8.054;2022-12-18T05:31:09;100955.41;;;-11.85;98.47
35908;BME280;22003;50.320;8.054;2022-12-18T05:33:35;100942.91;;;-11.47;99.13
35908;BME280;22003;50.320;8.054;2022-12-18T05:36:02;100983.31;;;-11.64;96.97
35908;BME280;22003;50.320;8.054;2022-12-18T05:38:28;101009.47;;;-11.44;97.25
35908;BME280;22003;50.320;8.054;2022-12-18T05:40:54;100962.03;;;-11.91;97.75
35908;BME280;22003;50.320;8.054;2022-12-18T05:43:21;100881.22;;;-12.42;98.23
35908;BME280;22003;50.320;8.054;2022-12-18T05:45:49;100955.34;;;-12.13;98.84
35908;BME280;22003;50.320;8.054;2022-12-18T05:48:16;101044.19;;;-11.52;99.85
35908;BME280;22003;50.320;8.054;2022-12-18T05:50:43;101017.41;;;-11.36;99.20
35908;BME280;22003;50.320;8.054;2022-12-18T05:53:11;100909.97;;;-12.47;97.86
35908;BME280;22003;50.320;8.054;2022-12-18T05:55:38;101030.44;;;-11.56;98.20
35908;BME280;22003;50.320;8.054;2022-12-18T05:58:05;100948.00;;;-11.76;98.00
35908;BME280;22003;50.320;8.054;2022-12-18T06:00:34;101016.53;;;-11.37;97.05
35908;BME280;22003;50.320;8.054;2022-12-18T06:03:01;100998.97;;;-12.07;96.13
35908;BME280;22003;50.320;8.054;2022-12-18T06:05:26;100893.59;;;-12.54;96.83
35908;BME280;22003;50.320;8.054;2022-12-18T06:07:52;100963.56;;;-12.22;96.48
35908;BME280;22003;50.320;8.054;2022-12-18T06:10:17;100950.03;;;-12.45;96.45
35908;BME280;22003;50.320;8.054;2022-12-18T06:12:42;100914.09;;;-12.51;97.00
35908;BME280;22003;50.320;8.054;2022-12-18T06:15:08;100892.25;;;-12.43;97.21
35908;BME280;22003;50.320;8.054;2022-12-18T06:17:34;100905.66;;;-12.23;97.32
35908;BME280;22003;50.320;8.054;2022-12-18T06:19:59;101009.94;;;-11.84;97.52
35908;BME280;22003;50.320;8.054;2022-12-18T06:22:25;100998.69;;;-11.89;97.96
35908;BME280;22003;50.320;8.054;2022-12-18T06:24:50;100915.97;;;-12.20;98.43
35908;BME280;22003;50.320;8.054;2022-12-18T06:27:16;101060.25;;;-11.56;98.21
35908;BME280;22003;50.320;8.054;2022-12-18T06:29:41;101041.94;;;-11.68;98.18
35908;BME280;22003;50.320;8.054;2022-12-18T06:32:06;100981.91;;;-12.08;98.18
35908;BME280;22003;50.320;8.054;2022-12-18T06:34:32;101008.06;;;-11.90;97.78
35908;BME280;22003;50.320;8.054;2022-12-18T06:36:58;101047.97;;;-11.66;97.17
35908;BME280;22003;50.320;8.054;2022-12-18T06:39:24;101059.13;;;-11.64;96.52
35908;BME280;22003;50.320;8.054;2022-12-18T06:41:51;100758.75;;;-13.18;96.36
35908;BME280;22003;50.320;8.054;2022-12-18T06:44:17;100921.25;;;-12.41;96.01
35908;BME280;22003;50.320;8.054;2022-12-18T06:46:42;101021.53;;;-11.94;96.04
35908;BME280;22003;50.320;8.054;2022-12-18T06:49:07;101016.25;;;-12.00;96.09
35908;BME280;22003;50.320;8.054;2022-12-18T06:51:34;101031.41;;;-11.78;96.61
35908;BME280;22003;50.320;8.054;2022-12-18T06:53:59;100999.19;;;-12.01;96.13
35908;BME280;22003;50.320;8.054;2022-12-18T06:56:24;101038.00;;;-11.59;96.60
35908;BME280;22003;50.320;8.054;2022-12-18T06:58:50;101060.03;;;-11.89;96.74
35908;BME280;22003;50.320;8.054;2022-12-18T07:01:15;101076.25;;;-11.62;96.52
35908;BME280;22003;50.320;8.054;2022-12-18T07:03:41;101005.00;;;-12.05;96.37
35908;BME280;22003;50.320;8.054;2022-12-18T07:06:13;101069.56;;;-11.58;97.29
35908;BME280;22003;50.320;8.054;2022-12-18T07:08:38;100930.13;;;-12.30;97.47
35908;BME280;22003;50.320;8.054;2022-12-18T07:11:04;101047.69;;;-11.76;97.78
35908;BME280;22003;50.320;8.054;2022-12-18T07:13:30;101047.88;;;-11.69;97.54
35908;BME280;22003;50.320;8.054;2022-12-18T07:16:09;101059.00;;;-11.42;97.90
35908;BME280;22003;50.320;8.054;2022-12-18T07:18:34;101003.00;;;-11.88;97.39
35908;BME280;22003;50.320;8.054;2022-12-18T07:21:04;100983.03;;;-12.00;97.22
35908;BME280;22003;50.320;8.054;2022-12-18T07:23:32;101032.72;;;-11.65;97.52
35908;BME280;22003;50.320;8.054;2022-12-18T07:26:08;100945.75;;;-12.20;97.48
35908;BME280;22003;50.320;8.054;2022-12-18T07:28:35;101054.31;;;-11.55;96.18
35908;BME280;22003;50.320;8.054;2022-12-18T07:31:05;101060.34;;;-11.53;95.91
35908;BME280;22003;50.320;8.054;2022-12-18T07:33:32;101019.22;;;-11.88;95.90
35908;BME280;22003;50.320;8.054;2022-12-18T07:36:02;100906.81;;;-12.39;95.22
35908;BME280;22003;50.320;8.054;2022-12-18T07:38:28;101058.13;;;-11.42;95.35
35908;BME280;22003;50.320;8.054;2022-12-18T07:40:54;100996.34;;;-11.83;95.25
35908;BME280;22003;50.320;8.054;2022-12-18T07:43:19;101021.03;;;-11.84;95.34
35908;BME280;22003;50.320;8.054;2022-12-18T07:45:44;101007.97;;;-11.93;95.31
35908;BME280;22003;50.320;8.054;2022-12-18T07:48:09;101048.63;;;-11.20;94.85
35908;BME280;22003;50.320;8.054;2022-12-18T07:50:35;101013.72;;;-11.72;93.75
35908;BME280;22003;50.320;8.054;2022-12-18T07:53:00;100981.28;;;-12.01;93.73
35908;BME280;22003;50.320;8.054;2022-12-18T07:55:29;100974.22;;;-11.83;93.92
35908;BME280;22003;50.320;8.054;2022-12-18T07:57:54;100989.16;;;-11.95;93.97
35908;BME280;22003;50.320;8.054;2022-12-18T08:00:19;100949.72;;;-12.03;94.01
35908;BME280;22003;50.320;8.054;2022-12-18T08:02:45;100995.41;;;-11.58;93.47
35908;BME280;22003;50.320;8.054;2022-12-18T08:05:10;101018.44;;;-11.58;93.40
35908;BME280;22003;50.320;8.054;2022-12-18T08:07:35;101028.81;;;-11.54;93.80
35908;BME280;22003;50.320;8.054;2022-12-18T08:10:00;100935.81;;;-12.11;94.07
35908;BME280;22003;50.320;8.054;2022-12-18T08:12:26;100940.59;;;-11.95;94.63
35908;BME280;22003;50.320;8.054;2022-12-18T08:14:51;100927.75;;;-11.98;94.54
35908;BME280;22003;50.320;8.054;2022-12-18T08:17:16;101005.00;;;-11.51;94.74
35908;BME280;22003;50.320;8.054;2022-12-18T08:19:41;101003.75;;;-11.37;94.43
35908;BME280;22003;50.320;8.054;2022-12-18T08:22:07;100981.63;;;-11.63;93.55
35908;BME280;22003;50.320;8.054;2022-12-18T08:24:32;101016.94;;;-11.23;93.00
35908;BME280;22003;50.320;8.054;2022-12-18T08:26:57;100985.84;;;-11.08;92.04
35908;BME280;22003;50.320;8.054;2022-12-18T08:29:23;100991.19;;;-10.99;91.77
35908;BME280;22003;50.320;8.054;2022-12-18T08:31:48;101041.97;;;-10.84;91.61
35908;BME280;22003;50.320;8.054;2022-12-18T08:34:13;101031.69;;;-10.86;91.51
35908;BME280;22003;50.320;8.054;2022-12-18T08:36:39;101006.13;;;-10.84;91.70
35908;BME280;22003;50.320;8.054;2022-12-18T08:39:05;100953.06;;;-10.90;91.95
35908;BME280;22003;50.320;8.054;2022-12-18T08:41:30;101008.09;;;-10.76;91.92
35908;BME280;22003;50.320;8.054;2022-12-18T08:43:55;100918.03;;;-10.93;92.59
35908;BME280;22003;50.320;8.054;2022-12-18T08:46:41;101018.03;;;-10.25;92.29
35908;BME280;22003;50.320;8.054;2022-12-18T08:49:07;101012.47;;;-10.07;92.33
35908;BME280;22003;50.320;8.054;2022-12-18T08:51:32;101010.16;;;-9.98;92.05
35908;BME280;22003;50.320;8.054;2022-12-18T08:53:58;100900.25;;;-10.55;91.76
35908;BME280;22003;50.320;8.054;2022-12-18T08:56:23;100970.44;;;-10.14;92.05
35908;BME280;22003;50.320;8.054;2022-12-18T08:58:52;100866.22;;;-10.49;91.86
35908;BME280;22003;50.320;8.054;2022-12-18T09:01:18;100994.44;;;-9.77;90.29
35908;BME280;22003;50.320;8.054;2022-12-18T09:03:46;101006.38;;;-9.77;89.25
35908;BME280;22003;50.320;8.054;2022-12-18T09:06:16;101014.53;;;-9.58;90.40
35908;BME280;22003;50.320;8.054;2022-12-18T09:08:43;100952.13;;;-9.94;89.99
35908;BME280;22003;50.320;8.054;2022-12-18T09:11:14;101033.75;;;-9.40;90.87
35908;BME280;22003;50.320;8.054;2022-12-18T09:13:39;100917.97;;;-9.93;91.42
35908;BME280;22003;50.320;8.054;2022-12-18T09:16:05;100974.84;;;-9.36;91.46
35908;BME280;22003;50.320;8.054;2022-12-18T09:18:30;100868.72;;;-9.78;91.33
35908;BME280;22003;50.320;8.054;2022-12-18T09:20:55;100945.78;;;-9.35;89.60
35908;BME280;22003;50.320;8.054;2022-12-18T09:23:20;100975.81;;;-9.32;89.43
35908;BME280;22003;50.320;8.054;2022-12-18T09:25:46;100994.38;;;-9.42;90.55
35908;BME280;22003;50.320;8.054;2022-12-18T09:28:16;101046.44;;;-9.10;91.09
35908;BME280;22003;50.320;8.054;2022-12-18T09:30:45;101043.75;;;-8.77;91.40
35908;BME280;22003;50.320;8.054;2022-12-18T09:33:10;100996.97;;;-9.01;90.46
35908;BME280;22003;50.320;8.054;2022-12-18T09:35:40;101026.78;;;-8.69;90.19
35908;BME280;22003;50.320;8.054;2022-12-18T09:38:07;101021.31;;;-8.42;90.18
35908;BME280;22003;50.320;8.054;2022-12-18T09:40:42;101008.38;;;-8.89;90.34
35908;BME280;22003;50.320;8.054;2022-12-18T09:43:14;101021.41;;;-8.80;90.86
35908;BME280;22003;50.320;8.054;2022-12-18T09:45:44;100980.19;;;-8.87;89.03
35908;BME280;22003;50.320;8.054;2022-12-18T09:48:19;100974.28;;;-8.35;89.07
35908;BME280;22003;50.320;8.054;2022-12-18T09:50:48;101031.84;;;-7.78;87.59
35908;BME280;22003;50.320;8.054;2022-12-18T09:53:22;101033.06;;;-7.58;86.93
35908;BME280;22003;50.320;8.054;2022-12-18T09:55:51;101040.56;;;-7.72;87.48
35908;BME280;22003;50.320;8.054;2022-12-18T09:58:30;101004.97;;;-7.95;87.55
35908;BME280;22003;50.320;8.054;2022-12-18T10:00:57;101015.22;;;-7.47;87.34
35908;BME280;22003;50.320;8.054;2022-12-18T10:03:22;100998.47;;;-7.19;88.46
35908;BME280;22003;50.320;8.054;2022-12-18T10:08:34;101015.44;;;-6.70;89.11
35908;BME280;22003;50.320;8.054;2022-12-18T10:14:44;101000.09;;;-6.57;86.75
35908;BME280;22003;50.320;8.054;2022-12-18T10:17:26;100968.72;;;-6.94;87.06
35908;BME280;22003;50.320;8.054;2022-12-18T10:19:59;101003.22;;;-6.84;87.37
35908;BME280;22003;50.320;8.054;2022-12-18T10:22:47;100971.09;;;-7.11;88.09
35908;BME280;22003;50.320;8.054;2022-12-18T10:25:50;100983.66;;;-6.69;87.21
35908;BME280;22003;50.320;8.054;2022-12-18T10:28:18;100999.63;;;-6.97;87.04
35908;BME280;22003;50.320;8.054;2022-12-18T10:30:45;100993.44;;;-6.39;86.37
35908;BME280;22003;50.320;8.054;2022-12-18T10:33:21;100989.84;;;-6.53;86.34
35908;BME280;22003;50.320;8.054;2022-12-18T10:35:52;100996.00;;;-6.40;86.87
35908;BME280;22003;50.320;8.054;2022-12-18T10:40:55;100916.69;;;-6.64;88.08
35908;BME280;22003;50.320;8.054;2022-12-18T10:48:54;100965.84;;;-6.49;87.77
35908;BME280;22003;50.320;8.054;2022-12-18T10:51:30;100961.44;;;-6.59;89.32
35908;BME280;22003;50.320;8.054;2022-12-18T10:53:59;100956.84;;;-6.01;88.14
35908;BME280;22003;50.320;8.054;2022-12-18T10:56:27;100990.78;;;-5.46;86.28
35908;BME280;22003;50.320;8.054;2022-12-18T10:59:03;100944.34;;;-5.40;84.94
35908;BME280;22003;50.320;8.054;2022-12-18T11:01:45;100971.41;;;-4.70;83.46
35908;BME280;22003;50.320;8.054;2022-12-18T11:04:16;100947.06;;;-5.18;82.06
35908;BME280;22003;50.320;8.054;2022-12-18T11:07:02;100961.75;;;-5.08;83.66
35908;BME280;22003;50.320;8.054;2022-12-18T11:09:34;100956.34;;;-5.49;84.49
35908;BME280;22003;50.320;8.054;2022-12-18T11:12:03;100966.88;;;-5.16;85.77
35908;BME280;22003;50.320;8.054;2022-12-18T11:14:34;100920.38;;;-5.14;83.88
35908;BME280;22003;50.320;8.054;2022-12-18T11:17:31;100909.19;;;-5.12;82.72
35908;BME280;22003;50.320;8.054;2022-12-18T11:19:59;100938.66;;;-4.71;82.68
35908;BME280;22003;50.320;8.054;2022-12-18T11:22:32;100950.75;;;-4.58;83.58
35908;BME280;22003;50.320;8.054;2022-12-18T11:27:23;100916.34;;;-4.14;83.51
35908;BME280;22003;50.320;8.054;2022-12-18T11:29:50;100907.69;;;-4.30;81.60
35908;BME280;22003;50.320;8.054;2022-12-18T11:32:38;100946.53;;;-3.95;83.72
35908;BME280;22003;50.320;8.054;2022-12-18T11:35:27;100862.78;;;-4.78;83.51
35908;BME280;22003;50.320;8.054;2022-12-18T11:38:04;100958.59;;;-4.25;84.94
35908;BME280;22003;50.320;8.054;2022-12-18T11:40:40;100947.38;;;-3.78;83.83
35908;BME280;22003;50.320;8.054;2022-12-18T11:43:13;100832.66;;;-4.53;82.63
35908;BME280;22003;50.320;8.054;2022-12-18T11:45:46;100817.09;;;-4.93;84.54
35908;BME280;22003;50.320;8.054;2022-12-18T11:48:23;100952.53;;;-4.17;84.53
35908;BME280;22003;50.320;8.054;2022-12-18T11:50:55;100918.94;;;-4.04;83.95
35908;BME280;22003;50.320;8.054;2022-12-18T11:53:21;100925.78;;;-4.35;85.25
35908;BME280;22003;50.320;8.054;2022-12-18T11:58:45;100937.03;;;-3.75;82.50
35908;BME280;22003;50.320;8.054;2022-12-18T12:01:50;100943.06;;;-3.95;84.08
35908;BME280;22003;50.320;8.054;2022-12-18T12:04:28;100943.94;;;-4.18;85.39
35908;BME280;22003;50.320;8.054;2022-12-18T12:07:09;100935.31;;;-3.82;86.68
35908;BME280;22003;50.320;8.054;2022-12-18T12:15:54;100941.34;;;-4.13;84.91
35908;BME280;22003;50.320;8.054;2022-12-18T12:26:51;100924.94;;;-4.37;87.44
35908;BME280;22003;50.320;8.054;2022-12-18T12:34:38;100882.69;;;-4.25;87.53
35908;BME280;22003;50.320;8.054;2022-12-18T12:37:23;100918.06;;;-3.92;87.61
35908;BME280;22003;50.320;8.054;2022-12-18T12:39:54;100918.94;;;-3.91;88.41
35908;BME280;22003;50.320;8.054;2022-12-18T12:42:44;100924.97;;;-4.15;88.44
35908;BME280;22003;50.320;8.054;2022-12-18T12:45:39;100926.66;;;-4.23;88.76
35908;BME280;22003;50.320;8.054;2022-12-18T12:48:09;100921.41;;;-4.62;90.04
35908;BME280;22003;50.320;8.054;2022-12-18T12:50:38;100911.16;;;-4.14;89.99
35908;BME280;22003;50.320;8.054;2022-12-18T12:53:07;100895.63;;;-4.01;89.94
35908;BME280;22003;50.320;8.054;2022-12-18T12:55:37;100894.78;;;-3.93;90.32
35908;BME280;22003;50.320;8.054;2022-12-18T12:58:33;100886.97;;;-3.74;90.73
35908;BME280;22003;50.320;8.054;2022-12-18T13:04:08;100911.16;;;-3.72;91.29
35908;BME280;22003;50.320;8.054;2022-12-18T13:06:44;100870.63;;;-3.99;92.24
35908;BME280;22003;50.320;8.054;2022-12-18T13:09:12;100886.09;;;-3.63;91.80
35908;BME280;22003;50.320;8.054;2022-12-18T13:11:43;100911.13;;;-3.53;91.54
35908;BME280;22003;50.320;8.054;2022-12-18T13:14:39;100852.41;;;-3.66;91.70
35908;BME280;22003;50.320;8.054;2022-12-18T13:17:27;100855.78;;;-3.35;89.92
35908;BME280;22003;50.320;8.054;2022-12-18T13:20:07;100871.22;;;-3.06;89.39
35908;BME280;22003;50.320;8.054;2022-12-18T13:22:39;100876.53;;;-3.37;89.36
35908;BME280;22003;50.320;8.054;2022-12-18T13:25:32;100883.44;;;-3.40;90.19
35908;BME280;22003;50.320;8.054;2022-12-18T13:28:13;100891.28;;;-3.63;91.77
35908;BME280;22003;50.320;8.054;2022-12-18T13:38:35;100896.34;;;-3.16;91.54
35908;BME280;22003;50.320;8.054;2022-12-18T13:44:31;100879.19;;;-3.55;91.69
35908;BME280;22003;50.320;8.054;2022-12-18T13:46:42;100874.81;;;-3.50;91.80
35908;BME280;22003;50.320;8.054;2022-12-18T13:51:46;100872.28;;;-3.62;90.34
35908;BME280;22003;50.320;8.054;2022-12-18T13:54:37;100873.19;;;-3.85;91.54
35908;BME280;22003;50.320;8.054;2022-12-18T13:57:05;100834.38;;;-3.99;91.17
35908;BME280;22003;50.320;8.054;2022-12-18T13:59:37;100836.97;;;-4.06;91.05
35908;BME280;22003;50.320;8.054;2022-12-18T14:02:17;100862.78;;;-3.73;91.05
35908;BME280;22003;50.320;8.054;2022-12-18T14:04:46;100865.44;;;-3.94;90.76
35908;BME280;22003;50.320;8.054;2022-12-18T14:07:14;100740.41;;;-5.01;91.76